^^
Station Historical Data
Daily Summary for February 17, 2018 Units:  Both    English   Metric
« Previous Day
Next Day »
Daily Weekly Monthly Yearly Custom
  High: Low: Average:
Temperature: TemperatureF °F /  -17.8 °C 55.2 °F /  12.9 °C 72.9 °F /  22.7 °C
Dew Point: DewpointF °F /  -17.8 °C 24.3 °F /  -4.3 °C 32.5 °F /  0.3 °C
Humidity: Humidity% 10% 26%
Wind Speed: WindSpeedMPHmph /  0km/h - 1.7mph /  2.7km/h
Wind Gust: WindSpeedGustMPHmph /  0km/h - -
Wind- - SW
Pressure: PressureIn in /  0 hPa 29.66 in /  1004.3 hPa -
Precipitation: 0.00 in /  0 mm    
Historical Graphs
 
 
Tabular Data for February 17, 2018
Time Temperature Dew Point Pressure Wind Wind Speed Wind Gust Humidity Rainfall Rate (Hourly) solar Conditions
TemperatureF °F /  -17.8 °C DewpointF °F /  -17.8 °C PressureInin /  0hPa Calm     Humidity% HourlyPrecipInin /  0mm SolarRadiationWatts/m^2 W/m2 Conditions
00:04 63.9 °F /  17.7 °C 34.2 °F /  1.2 °C 29.78in /  1008.4hPa Calm   1.0mph /  1.6km/h 33% 0.00in /  0mm 0.0 W/m2
00:09 63.7 °F /  17.6 °C 35.6 °F /  2 °C 29.78in /  1008.4hPa Calm   1.0mph /  1.6km/h 35% 0.00in /  0mm 0.0 W/m2
00:14 63.3 °F /  17.4 °C 37.2 °F /  2.9 °C 29.78in /  1008.4hPa Calm   1.0mph /  1.6km/h 38% 0.00in /  0mm 0.0 W/m2
00:19 63.1 °F /  17.3 °C 37.8 °F /  3.2 °C 29.78in /  1008.4hPa Calm   1.0mph /  1.6km/h 39% 0.00in /  0mm 0.0 W/m2
00:24 63.0 °F /  17.2 °C 36.3 °F /  2.4 °C 29.78in /  1008.4hPa ENE 0.9mph /  1.4km/h 1.0mph /  1.6km/h 37% 0.00in /  0mm 0.0 W/m2
00:30 62.8 °F /  17.1 °C 38.1 °F /  3.4 °C 29.78in /  1008.4hPa Calm   1.0mph /  1.6km/h 40% 0.00in /  0mm 0.0 W/m2
00:35 62.4 °F /  16.9 °C 35.8 °F /  2.1 °C 29.78in /  1008.4hPa Calm   1.0mph /  1.6km/h 37% 0.00in /  0mm 0.0 W/m2
00:40 62.2 °F /  16.8 °C 35.6 °F /  2 °C 29.78in /  1008.4hPa Calm   2.0mph /  3.2km/h 37% 0.00in /  0mm 0.0 W/m2
00:45 62.1 °F /  16.7 °C 34.9 °F /  1.6 °C 29.78in /  1008.4hPa NE 2.0mph /  3.2km/h 3.0mph /  4.8km/h 36% 0.00in /  0mm 0.0 W/m2
00:50 62.1 °F /  16.7 °C 35.4 °F /  1.9 °C 29.78in /  1008.4hPa ENE 2.9mph /  4.7km/h 3.0mph /  4.8km/h 37% 0.00in /  0mm 0.0 W/m2
00:55 62.1 °F /  16.7 °C 34.9 °F /  1.6 °C 29.78in /  1008.4hPa Calm   3.0mph /  4.8km/h 36% 0.00in /  0mm 0.0 W/m2
01:00 62.1 °F /  16.7 °C 34.9 °F /  1.6 °C 29.78in /  1008.4hPa Calm   2.0mph /  3.2km/h 36% 0.00in /  0mm 0.0 W/m2
01:05 61.9 °F /  16.6 °C 35.2 °F /  1.8 °C 29.78in /  1008.4hPa Calm   1.0mph /  1.6km/h 37% 0.00in /  0mm 0.0 W/m2
01:10 61.9 °F /  16.6 °C 34.7 °F /  1.5 °C 29.78in /  1008.4hPa East 2.0mph /  3.2km/h 2.0mph /  3.2km/h 36% 0.00in /  0mm 0.0 W/m2
01:16 61.9 °F /  16.6 °C 35.2 °F /  1.8 °C 29.78in /  1008.4hPa Calm   1.0mph /  1.6km/h 37% 0.00in /  0mm 0.0 W/m2
01:21 61.7 °F /  16.5 °C 35.2 °F /  1.8 °C 29.77in /  1008hPa Calm   1.0mph /  1.6km/h 37% 0.00in /  0mm 0.0 W/m2
01:26 61.5 °F /  16.4 °C 37.0 °F /  2.8 °C 29.77in /  1008hPa Calm     40% 0.00in /  0mm 0.0 W/m2
01:31 61.3 °F /  16.3 °C 36.1 °F /  2.3 °C 29.77in /  1008hPa Calm   1.0mph /  1.6km/h 39% 0.00in /  0mm 0.0 W/m2
01:36 61.2 °F /  16.2 °C 38.5 °F /  3.6 °C 29.77in /  1008hPa Calm   1.0mph /  1.6km/h 43% 0.00in /  0mm 0.0 W/m2
01:41 61.0 °F /  16.1 °C 38.3 °F /  3.5 °C 29.77in /  1008hPa Calm     43% 0.00in /  0mm 0.0 W/m2
01:46 60.6 °F /  15.9 °C 35.6 °F /  2 °C 29.77in /  1008hPa Calm   1.0mph /  1.6km/h 39% 0.00in /  0mm 0.0 W/m2
01:51 60.6 °F /  15.9 °C 35.6 °F /  2 °C 29.77in /  1008hPa East 0.9mph /  1.4km/h 1.0mph /  1.6km/h 39% 0.00in /  0mm 0.0 W/m2
01:56 60.4 °F /  15.8 °C 35.4 °F /  1.9 °C 29.77in /  1008hPa East 0.9mph /  1.4km/h 2.0mph /  3.2km/h 39% 0.00in /  0mm 0.0 W/m2
02:02 60.4 °F /  15.8 °C 36.0 °F /  2.2 °C 29.76in /  1007.7hPa Calm   1.0mph /  1.6km/h 40% 0.00in /  0mm 0.0 W/m2
02:07 60.3 °F /  15.7 °C 36.5 °F /  2.5 °C 29.76in /  1007.7hPa Calm     41% 0.00in /  0mm 0.0 W/m2
02:12 60.3 °F /  15.7 °C 36.5 °F /  2.5 °C 29.76in /  1007.7hPa East 0.9mph /  1.4km/h 1.0mph /  1.6km/h 41% 0.00in /  0mm 0.0 W/m2
02:17 60.1 °F /  15.6 °C 36.9 °F /  2.7 °C 29.76in /  1007.7hPa Calm   2.0mph /  3.2km/h 42% 0.00in /  0mm 0.0 W/m2
02:22 59.9 °F /  15.5 °C 36.7 °F /  2.6 °C 29.76in /  1007.7hPa ESE 0.9mph /  1.4km/h 3.0mph /  4.8km/h 42% 0.00in /  0mm 0.0 W/m2
02:27 59.7 °F /  15.4 °C 36.0 °F /  2.2 °C 29.75in /  1007.3hPa Calm   1.0mph /  1.6km/h 41% 0.00in /  0mm 0.0 W/m2
02:32 59.5 °F /  15.3 °C 36.5 °F /  2.5 °C 29.75in /  1007.3hPa Calm     42% 0.00in /  0mm 0.0 W/m2
02:37 59.5 °F /  15.3 °C 35.2 °F /  1.8 °C 29.75in /  1007.3hPa Calm   1.0mph /  1.6km/h 40% 0.00in /  0mm 0.0 W/m2
02:42 59.4 °F /  15.2 °C 35.1 °F /  1.7 °C 29.75in /  1007.3hPa Calm   3.0mph /  4.8km/h 40% 0.00in /  0mm 0.0 W/m2
02:48 59.4 °F /  15.2 °C 35.1 °F /  1.7 °C 29.75in /  1007.3hPa Calm   1.0mph /  1.6km/h 40% 0.00in /  0mm 0.0 W/m2
02:53 59.4 °F /  15.2 °C 35.6 °F /  2 °C 29.74in /  1007hPa ENE 0.9mph /  1.4km/h 2.0mph /  3.2km/h 41% 0.00in /  0mm 0.0 W/m2
02:58 59.4 °F /  15.2 °C 36.3 °F /  2.4 °C 29.74in /  1007hPa Calm   2.0mph /  3.2km/h 42% 0.00in /  0mm 0.0 W/m2
03:03 59.2 °F /  15.1 °C 34.9 °F /  1.6 °C 29.74in /  1007hPa Calm     40% 0.00in /  0mm 0.0 W/m2
03:08 59.2 °F /  15.1 °C 37.2 °F /  2.9 °C 29.74in /  1007hPa Calm   1.0mph /  1.6km/h 44% 0.00in /  0mm 0.0 W/m2
03:13 59.0 °F /  15 °C 36.0 °F /  2.2 °C 29.73in /  1006.7hPa ENE 2.9mph /  4.7km/h 4.0mph /  6.4km/h 42% 0.00in /  0mm 0.0 W/m2
03:18 58.8 °F /  14.9 °C 35.8 °F /  2.1 °C 29.73in /  1006.7hPa Calm   2.0mph /  3.2km/h 42% 0.00in /  0mm 0.0 W/m2
03:23 58.8 °F /  14.9 °C 35.8 °F /  2.1 °C 29.73in /  1006.7hPa Calm   1.0mph /  1.6km/h 42% 0.00in /  0mm 0.0 W/m2
03:28 58.6 °F /  14.8 °C 35.1 °F /  1.7 °C 29.73in /  1006.7hPa ENE 0.9mph /  1.4km/h 2.0mph /  3.2km/h 41% 0.00in /  0mm 0.0 W/m2
03:34 58.5 °F /  14.7 °C 35.4 °F /  1.9 °C 29.73in /  1006.7hPa Calm   1.0mph /  1.6km/h 42% 0.00in /  0mm 0.0 W/m2
03:39 58.5 °F /  14.7 °C 35.4 °F /  1.9 °C 29.73in /  1006.7hPa ENE 0.9mph /  1.4km/h 3.0mph /  4.8km/h 42% 0.00in /  0mm 0.0 W/m2
03:44 58.3 °F /  14.6 °C 35.2 °F /  1.8 °C 29.72in /  1006.3hPa Calm   3.0mph /  4.8km/h 42% 0.00in /  0mm 0.0 W/m2
03:49 58.3 °F /  14.6 °C 36.0 °F /  2.2 °C 29.72in /  1006.3hPa Calm   3.0mph /  4.8km/h 43% 0.00in /  0mm 0.0 W/m2
03:54 58.3 °F /  14.6 °C 36.5 °F /  2.5 °C 29.72in /  1006.3hPa ENE 0.9mph /  1.4km/h 2.0mph /  3.2km/h 44% 0.00in /  0mm 0.0 W/m2
03:59 58.1 °F /  14.5 °C 36.3 °F /  2.4 °C 29.73in /  1006.7hPa ENE 2.0mph /  3.2km/h 7.0mph /  11.3km/h 44% 0.00in /  0mm 0.0 W/m2
04:04 57.9 °F /  14.4 °C 36.1 °F /  2.3 °C 29.73in /  1006.7hPa ENE 0.9mph /  1.4km/h 4.0mph /  6.4km/h 44% 0.00in /  0mm 0.0 W/m2
04:09 57.7 °F /  14.3 °C 35.4 °F /  1.9 °C 29.73in /  1006.7hPa Calm   1.0mph /  1.6km/h 43% 0.00in /  0mm 0.0 W/m2
04:14 57.6 °F /  14.2 °C 35.8 °F /  2.1 °C 29.73in /  1006.7hPa Calm   1.0mph /  1.6km/h 44% 0.00in /  0mm 0.0 W/m2
04:19 57.6 °F /  14.2 °C 35.2 °F /  1.8 °C 29.73in /  1006.7hPa ESE 0.9mph /  1.4km/h 4.0mph /  6.4km/h 43% 0.00in /  0mm 0.0 W/m2
04:25 57.4 °F /  14.1 °C 35.6 °F /  2 °C 29.73in /  1006.7hPa East 0.9mph /  1.4km/h 3.0mph /  4.8km/h 44% 0.00in /  0mm 0.0 W/m2
04:30 57.4 °F /  14.1 °C 35.6 °F /  2 °C 29.73in /  1006.7hPa Calm   2.0mph /  3.2km/h 44% 0.00in /  0mm 0.0 W/m2
04:35 57.2 °F /  14 °C 34.9 °F /  1.6 °C 29.73in /  1006.7hPa East 0.9mph /  1.4km/h 2.0mph /  3.2km/h 43% 0.00in /  0mm 0.0 W/m2
04:40 57.2 °F /  14 °C 34.9 °F /  1.6 °C 29.72in /  1006.3hPa Calm   3.0mph /  4.8km/h 43% 0.00in /  0mm 0.0 W/m2
04:45 57.0 °F /  13.9 °C 34.2 °F /  1.2 °C 29.73in /  1006.7hPa Calm   1.0mph /  1.6km/h 42% 0.00in /  0mm 0.0 W/m2
04:50 57.0 °F /  13.9 °C 34.7 °F /  1.5 °C 29.73in /  1006.7hPa Calm   2.0mph /  3.2km/h 43% 0.00in /  0mm 0.0 W/m2
04:55 57.0 °F /  13.9 °C 34.2 °F /  1.2 °C 29.73in /  1006.7hPa Calm   1.0mph /  1.6km/h 42% 0.00in /  0mm 0.0 W/m2
05:00 57.0 °F /  13.9 °C 36.5 °F /  2.5 °C 29.73in /  1006.7hPa Calm   1.0mph /  1.6km/h 46% 0.00in /  0mm 0.0 W/m2
05:06 56.8 °F /  13.8 °C 35.8 °F /  2.1 °C 29.73in /  1006.7hPa Calm     45% 0.00in /  0mm 0.0 W/m2
05:11 56.7 °F /  13.7 °C 33.8 °F /  1 °C 29.73in /  1006.7hPa East 2.9mph /  4.7km/h 3.0mph /  4.8km/h 42% 0.00in /  0mm 0.0 W/m2
05:17 56.7 °F /  13.7 °C 34.3 °F /  1.3 °C 29.74in /  1007hPa Calm   4.0mph /  6.4km/h 43% 0.00in /  0mm 0.0 W/m2
05:22 56.7 °F /  13.7 °C 34.3 °F /  1.3 °C 29.74in /  1007hPa Calm   3.0mph /  4.8km/h 43% 0.00in /  0mm 0.0 W/m2
05:27 56.7 °F /  13.7 °C 34.3 °F /  1.3 °C 29.74in /  1007hPa Calm   1.0mph /  1.6km/h 43% 0.00in /  0mm 0.0 W/m2
05:32 56.5 °F /  13.6 °C 34.3 °F /  1.3 °C 29.74in /  1007hPa Calm   2.0mph /  3.2km/h 43% 0.00in /  0mm 0.0 W/m2
05:37 56.3 °F /  13.5 °C 34.2 °F /  1.2 °C 29.74in /  1007hPa SE 4.0mph /  6.4km/h 5.0mph /  8km/h 43% 0.00in /  0mm 0.0 W/m2
05:42 56.3 °F /  13.5 °C 34.2 °F /  1.2 °C 29.74in /  1007hPa ESE 4.0mph /  6.4km/h 4.0mph /  6.4km/h 43% 0.00in /  0mm 0.0 W/m2
05:47 56.5 °F /  13.6 °C 34.3 °F /  1.3 °C 29.74in /  1007hPa ESE 0.9mph /  1.4km/h 2.0mph /  3.2km/h 43% 0.00in /  0mm 0.0 W/m2
05:52 56.3 °F /  13.5 °C 34.2 °F /  1.2 °C 29.74in /  1007hPa Calm     43% 0.00in /  0mm 0.0 W/m2
05:58 56.1 °F /  13.4 °C 34.0 °F /  1.1 °C 29.74in /  1007hPa ESE 2.9mph /  4.7km/h 4.0mph /  6.4km/h 43% 0.00in /  0mm 0.0 W/m2
06:03 56.1 °F /  13.4 °C 34.5 °F /  1.4 °C 29.74in /  1007hPa Calm   2.0mph /  3.2km/h 44% 0.00in /  0mm 0.0 W/m2
06:08 56.1 °F /  13.4 °C 34.5 °F /  1.4 °C 29.75in /  1007.3hPa Calm   1.0mph /  1.6km/h 44% 0.00in /  0mm 0.0 W/m2
06:13 55.9 °F /  13.3 °C 33.8 °F /  1 °C 29.75in /  1007.3hPa Calm   1.0mph /  1.6km/h 43% 0.00in /  0mm 0.0 W/m2
06:18 55.9 °F /  13.3 °C 33.8 °F /  1 °C 29.75in /  1007.3hPa SE 0.9mph /  1.4km/h 1.0mph /  1.6km/h 43% 0.00in /  0mm 0.0 W/m2
06:23 55.8 °F /  13.2 °C 33.6 °F /  0.9 °C 29.75in /  1007.3hPa Calm   1.0mph /  1.6km/h 43% 0.00in /  0mm 0.0 W/m2
06:28 55.8 °F /  13.2 °C 34.7 °F /  1.5 °C 29.75in /  1007.3hPa Calm   1.0mph /  1.6km/h 45% 0.00in /  0mm 0.0 W/m2
06:33 55.6 °F /  13.1 °C 34.0 °F /  1.1 °C 29.75in /  1007.3hPa Calm   2.0mph /  3.2km/h 44% 0.00in /  0mm 0.0 W/m2
06:39 55.6 °F /  13.1 °C 34.0 °F /  1.1 °C 29.75in /  1007.3hPa Calm   1.0mph /  1.6km/h 44% 0.00in /  0mm 0.0 W/m2
06:44 55.6 °F /  13.1 °C 34.0 °F /  1.1 °C 29.75in /  1007.3hPa Calm   1.0mph /  1.6km/h 44% 0.00in /  0mm 0.0 W/m2
06:49 55.4 °F /  13 °C 33.8 °F /  1 °C 29.75in /  1007.3hPa Calm   1.0mph /  1.6km/h 44% 0.00in /  0mm 5.0 W/m2
06:54 55.2 °F /  12.9 °C 34.2 °F /  1.2 °C 29.75in /  1007.3hPa ESE 0.9mph /  1.4km/h 1.0mph /  1.6km/h 45% 0.00in /  0mm 7.0 W/m2
06:59 55.2 °F /  12.9 °C 34.2 °F /  1.2 °C 29.75in /  1007.3hPa Calm   1.0mph /  1.6km/h 45% 0.00in /  0mm 11.0 W/m2
07:04 55.2 °F /  12.9 °C 34.2 °F /  1.2 °C 29.76in /  1007.7hPa Calm   2.0mph /  3.2km/h 45% 0.00in /  0mm 12.0 W/m2
07:09 55.2 °F /  12.9 °C 33.6 °F /  0.9 °C 29.75in /  1007.3hPa Calm   2.0mph /  3.2km/h 44% 0.00in /  0mm 14.0 W/m2
07:14 55.2 °F /  12.9 °C 34.2 °F /  1.2 °C 29.75in /  1007.3hPa Calm   3.0mph /  4.8km/h 45% 0.00in /  0mm 16.0 W/m2
07:19 55.4 °F /  13 °C 33.8 °F /  1 °C 29.76in /  1007.7hPa Calm   2.0mph /  3.2km/h 44% 0.00in /  0mm 16.0 W/m2
07:25 55.8 °F /  13.2 °C 34.2 °F /  1.2 °C 29.76in /  1007.7hPa Calm   1.0mph /  1.6km/h 44% 0.00in /  0mm 18.0 W/m2
07:31 55.9 °F /  13.3 °C 35.4 °F /  1.9 °C 29.76in /  1007.7hPa ESE 0.9mph /  1.4km/h 1.0mph /  1.6km/h 46% 0.00in /  0mm 19.0 W/m2
07:36 56.5 °F /  13.6 °C 36.0 °F /  2.2 °C 29.76in /  1007.7hPa Calm   1.0mph /  1.6km/h 46% 0.00in /  0mm 21.0 W/m2
07:41 56.8 °F /  13.8 °C 36.3 °F /  2.4 °C 29.76in /  1007.7hPa SE 2.0mph /  3.2km/h 4.0mph /  6.4km/h 46% 0.00in /  0mm 21.0 W/m2
07:46 57.2 °F /  14 °C 37.2 °F /  2.9 °C 29.77in /  1008hPa Calm   3.0mph /  4.8km/h 47% 0.00in /  0mm 23.0 W/m2
07:51 57.7 °F /  14.3 °C 37.0 °F /  2.8 °C 29.77in /  1008hPa Calm   3.0mph /  4.8km/h 46% 0.00in /  0mm 32.0 W/m2
07:56 58.3 °F /  14.6 °C 36.5 °F /  2.5 °C 29.77in /  1008hPa ESE 0.9mph /  1.4km/h 1.0mph /  1.6km/h 44% 0.00in /  0mm 35.0 W/m2
08:01 58.8 °F /  14.9 °C 37.6 °F /  3.1 °C 29.77in /  1008hPa Calm     45% 0.00in /  0mm 69.0 W/m2
08:07 59.4 °F /  15.2 °C 37.4 °F /  3 °C 29.77in /  1008hPa Calm   2.0mph /  3.2km/h 44% 0.00in /  0mm 30.0 W/m2
08:12 60.1 °F /  15.6 °C 38.1 °F /  3.4 °C 29.77in /  1008hPa Calm   3.0mph /  4.8km/h 44% 0.00in /  0mm 47.0 W/m2
08:18 61.0 °F /  16.1 °C 37.8 °F /  3.2 °C 29.77in /  1008hPa Calm   1.0mph /  1.6km/h 42% 0.00in /  0mm 35.0 W/m2
08:23 61.5 °F /  16.4 °C 38.3 °F /  3.5 °C 29.77in /  1008hPa Calm   1.0mph /  1.6km/h 42% 0.00in /  0mm 30.0 W/m2
08:28 62.4 °F /  16.9 °C 39.0 °F /  3.9 °C 29.77in /  1008hPa Calm     42% 0.00in /  0mm 30.0 W/m2
08:33 63.0 °F /  17.2 °C 35.6 °F /  2 °C 29.77in /  1008hPa Calm     36% 0.00in /  0mm 32.0 W/m2
08:38 63.9 °F /  17.7 °C 30.9 °F /  -0.6 °C 29.77in /  1008hPa North 0.9mph /  1.4km/h 2.0mph /  3.2km/h 29% 0.00in /  0mm 33.0 W/m2
08:43 64.8 °F /  18.2 °C 31.8 °F /  -0.1 °C 29.77in /  1008hPa WNW 0.9mph /  1.4km/h 1.0mph /  1.6km/h 29% 0.00in /  0mm 37.0 W/m2
08:48 65.8 °F /  18.8 °C 28.9 °F /  -1.7 °C 29.77in /  1008hPa West 3.0mph /  4.8km/h 3.0mph /  4.8km/h 25% 0.00in /  0mm 46.0 W/m2
08:54 66.7 °F /  19.3 °C 28.8 °F /  -1.8 °C 29.77in /  1008hPa Calm   1.0mph /  1.6km/h 24% 0.00in /  0mm 510.0 W/m2
08:59 67.6 °F /  19.8 °C 29.5 °F /  -1.4 °C 29.77in /  1008hPa Calm   2.0mph /  3.2km/h 24% 0.00in /  0mm 531.0 W/m2
09:04 68.7 °F /  20.4 °C 28.4 °F /  -2 °C 29.76in /  1007.7hPa WNW 0.9mph /  1.4km/h 2.0mph /  3.2km/h 22% 0.00in /  0mm 550.0 W/m2
09:09 70.0 °F /  21.1 °C 30.6 °F /  -0.8 °C 29.76in /  1007.7hPa WNW 0.9mph /  1.4km/h 2.0mph /  3.2km/h 23% 0.00in /  0mm 571.0 W/m2
09:14 70.9 °F /  21.6 °C 30.2 °F /  -1 °C 29.76in /  1007.7hPa SSW 4.0mph /  6.4km/h 4.0mph /  6.4km/h 22% 0.00in /  0mm 592.0 W/m2
09:19 71.6 °F /  22 °C 30.7 °F /  -0.7 °C 29.76in /  1007.7hPa Calm   3.0mph /  4.8km/h 22% 0.00in /  0mm 612.0 W/m2
09:24 72.1 °F /  22.3 °C 32.4 °F /  0.2 °C 29.76in /  1007.7hPa Calm   1.0mph /  1.6km/h 23% 0.00in /  0mm 631.0 W/m2
09:29 73.0 °F /  22.8 °C 30.7 °F /  -0.7 °C 29.76in /  1007.7hPa WSW 0.9mph /  1.4km/h 4.0mph /  6.4km/h 21% 0.00in /  0mm 650.0 W/m2
09:34 73.6 °F /  23.1 °C 30.0 °F /  -1.1 °C 29.76in /  1007.7hPa SW 2.0mph /  3.2km/h 5.0mph /  8km/h 20% 0.00in /  0mm 671.0 W/m2
09:40 74.1 °F /  23.4 °C 30.6 °F /  -0.8 °C 29.76in /  1007.7hPa Calm   5.0mph /  8km/h 20% 0.00in /  0mm 689.0 W/m2
09:45 74.8 °F /  23.8 °C 29.8 °F /  -1.2 °C 29.76in /  1007.7hPa WSW 0.9mph /  1.4km/h 7.0mph /  11.3km/h 19% 0.00in /  0mm 710.0 W/m2
09:50 75.4 °F /  24.1 °C 30.2 °F /  -1 °C 29.75in /  1007.3hPa Calm   6.0mph /  9.7km/h 19% 0.00in /  0mm 731.0 W/m2
09:55 75.9 °F /  24.4 °C 30.7 °F /  -0.7 °C 29.76in /  1007.7hPa West 4.9mph /  7.9km/h 7.0mph /  11.3km/h 19% 0.00in /  0mm 747.0 W/m2
10:00 76.5 °F /  24.7 °C 31.1 °F /  -0.5 °C 29.75in /  1007.3hPa Calm   4.0mph /  6.4km/h 19% 0.00in /  0mm 766.0 W/m2
10:05 77.0 °F /  25 °C 30.2 °F /  -1 °C 29.75in /  1007.3hPa WSW 2.0mph /  3.2km/h 7.0mph /  11.3km/h 18% 0.00in /  0mm 780.0 W/m2
10:10 77.5 °F /  25.3 °C 32.0 °F /  0 °C 29.75in /  1007.3hPa West 0.9mph /  1.4km/h 4.0mph /  6.4km/h 19% 0.00in /  0mm 796.0 W/m2
10:16 78.1 °F /  25.6 °C 31.1 °F /  -0.5 °C 29.75in /  1007.3hPa SW 6.0mph /  9.7km/h 6.0mph /  9.7km/h 18% 0.00in /  0mm 812.0 W/m2
10:21 78.3 °F /  25.7 °C 31.3 °F /  -0.4 °C 29.75in /  1007.3hPa Calm   5.0mph /  8km/h 18% 0.00in /  0mm 823.0 W/m2
10:26 78.6 °F /  25.9 °C 30.2 °F /  -1 °C 29.75in /  1007.3hPa West 2.9mph /  4.7km/h 6.0mph /  9.7km/h 17% 0.00in /  0mm 838.0 W/m2
10:31 79.2 °F /  26.2 °C 30.6 °F /  -0.8 °C 29.75in /  1007.3hPa West 2.9mph /  4.7km/h 7.0mph /  11.3km/h 17% 0.00in /  0mm 853.0 W/m2
10:36 79.2 °F /  26.2 °C 29.1 °F /  -1.6 °C 29.75in /  1007.3hPa WNW 2.0mph /  3.2km/h 5.0mph /  8km/h 16% 0.00in /  0mm 867.0 W/m2
10:43 79.5 °F /  26.4 °C 29.5 °F /  -1.4 °C 29.75in /  1007.3hPa Calm   4.0mph /  6.4km/h 16% 0.00in /  0mm 893.0 W/m2
10:48 80.2 °F /  26.8 °C 30.0 °F /  -1.1 °C 29.75in /  1007.3hPa Calm   4.0mph /  6.4km/h 16% 0.00in /  0mm 904.0 W/m2
10:53 80.8 °F /  27.1 °C 30.4 °F /  -0.9 °C 29.75in /  1007.3hPa WSW 8.1mph /  13km/h 8.1mph /  13km/h 16% 0.00in /  0mm 916.0 W/m2
10:58 80.8 °F /  27.1 °C 30.4 °F /  -0.9 °C 29.75in /  1007.3hPa North 0.9mph /  1.4km/h 5.0mph /  8km/h 16% 0.00in /  0mm 926.0 W/m2
11:03 81.1 °F /  27.3 °C 30.7 °F /  -0.7 °C 29.75in /  1007.3hPa West 2.0mph /  3.2km/h 5.0mph /  8km/h 16% 0.00in /  0mm 937.0 W/m2
11:09 81.5 °F /  27.5 °C 30.9 °F /  -0.6 °C 29.74in /  1007hPa WNW 2.9mph /  4.7km/h 8.0mph /  12.9km/h 16% 0.00in /  0mm 946.0 W/m2
11:14 82.2 °F /  27.9 °C 33.1 °F /  0.6 °C 29.74in /  1007hPa NW 4.0mph /  6.4km/h 8.0mph /  12.9km/h 17% 0.00in /  0mm 965.0 W/m2
11:19 83.1 °F /  28.4 °C 30.7 °F /  -0.7 °C 29.74in /  1007hPa NW 4.9mph /  7.9km/h 7.0mph /  11.3km/h 15% 0.00in /  0mm 977.0 W/m2
11:24 83.8 °F /  28.8 °C 32.9 °F /  0.5 °C 29.74in /  1007hPa NW 2.0mph /  3.2km/h 8.0mph /  12.9km/h 16% 0.00in /  0mm 981.0 W/m2
11:30 84.0 °F /  28.9 °C 31.5 °F /  -0.3 °C 29.74in /  1007hPa SW 4.9mph /  7.9km/h 8.0mph /  12.9km/h 15% 0.00in /  0mm 997.0 W/m2
11:35 84.0 °F /  28.9 °C 33.1 °F /  0.6 °C 29.74in /  1007hPa NNE 2.0mph /  3.2km/h 10.0mph /  16.1km/h 16% 0.00in /  0mm 998.0 W/m2
11:40 83.8 °F /  28.8 °C 32.9 °F /  0.5 °C 29.74in /  1007hPa West 2.0mph /  3.2km/h 10.0mph /  16.1km/h 16% 0.00in /  0mm 1005.0 W/m2
11:45 84.0 °F /  28.9 °C 31.5 °F /  -0.3 °C 29.74in /  1007hPa NW 4.9mph /  7.9km/h 6.0mph /  9.7km/h 15% 0.00in /  0mm 1013.0 W/m2
11:50 84.6 °F /  29.2 °C 33.4 °F /  0.8 °C 29.74in /  1007hPa Calm   6.0mph /  9.7km/h 16% 0.00in /  0mm 1018.0 W/m2
11:55 85.1 °F /  29.5 °C 32.2 °F /  0.1 °C 29.74in /  1007hPa North 8.9mph /  14.3km/h 9.0mph /  14.5km/h 15% 0.00in /  0mm 1034.0 W/m2
12:00 85.5 °F /  29.7 °C 30.9 °F /  -0.6 °C 29.73in /  1006.7hPa NNW 2.0mph /  3.2km/h 21.0mph /  33.8km/h 14% 0.00in /  0mm 1042.0 W/m2
12:06 85.6 °F /  29.8 °C 30.9 °F /  -0.6 °C 29.73in /  1006.7hPa West 0.9mph /  1.4km/h 7.0mph /  11.3km/h 14% 0.00in /  0mm 1046.0 W/m2
12:11 86.2 °F /  30.1 °C 33.1 °F /  0.6 °C 29.73in /  1006.7hPa WSW 0.9mph /  1.4km/h 3.0mph /  4.8km/h 15% 0.00in /  0mm 1044.0 W/m2
12:16 86.4 °F /  30.2 °C 33.3 °F /  0.7 °C 29.72in /  1006.3hPa NW 2.9mph /  4.7km/h 4.0mph /  6.4km/h 15% 0.00in /  0mm 1051.0 W/m2
12:21 86.4 °F /  30.2 °C 33.3 °F /  0.7 °C 29.72in /  1006.3hPa WNW 11.0mph /  17.7km/h 15.0mph /  24.1km/h 15% 0.00in /  0mm 1044.0 W/m2
12:26 86.2 °F /  30.1 °C 33.1 °F /  0.6 °C 29.72in /  1006.3hPa SW 4.9mph /  7.9km/h 5.0mph /  8km/h 15% 0.00in /  0mm 1046.0 W/m2
12:31 86.4 °F /  30.2 °C 31.5 °F /  -0.3 °C 29.72in /  1006.3hPa NNW 6.0mph /  9.7km/h 6.0mph /  9.7km/h 14% 0.00in /  0mm 1056.0 W/m2
12:36 87.1 °F /  30.6 °C 32.2 °F /  0.1 °C 29.72in /  1006.3hPa NNW 8.9mph /  14.3km/h 13.0mph /  20.9km/h 14% 0.00in /  0mm 1062.0 W/m2
12:41 87.4 °F /  30.8 °C 30.6 °F /  -0.8 °C 29.72in /  1006.3hPa NW 2.0mph /  3.2km/h 8.0mph /  12.9km/h 13% 0.00in /  0mm 1060.0 W/m2
12:46 87.6 °F /  30.9 °C 30.7 °F /  -0.7 °C 29.72in /  1006.3hPa WSW 4.0mph /  6.4km/h 5.0mph /  8km/h 13% 0.00in /  0mm 1062.0 W/m2
12:51 87.4 °F /  30.8 °C 34.2 °F /  1.2 °C 29.72in /  1006.3hPa WSW 4.9mph /  7.9km/h 5.0mph /  8km/h 15% 0.00in /  0mm 1058.0 W/m2
12:57 87.3 °F /  30.7 °C 32.2 °F /  0.1 °C 29.72in /  1006.3hPa WNW 2.9mph /  4.7km/h 15.0mph /  24.1km/h 14% 0.00in /  0mm 1065.0 W/m2
13:02 87.1 °F /  30.6 °C 30.2 °F /  -1 °C 29.72in /  1006.3hPa North 4.9mph /  7.9km/h 14.0mph /  22.5km/h 13% 0.00in /  0mm 1063.0 W/m2
13:07 86.7 °F /  30.4 °C 30.0 °F /  -1.1 °C 29.72in /  1006.3hPa North 8.1mph /  13km/h 8.1mph /  13km/h 13% 0.00in /  0mm 1058.0 W/m2
13:12 87.1 °F /  30.6 °C 30.2 °F /  -1 °C 29.72in /  1006.3hPa North 2.0mph /  3.2km/h 14.0mph /  22.5km/h 13% 0.00in /  0mm 1060.0 W/m2
13:17 87.1 °F /  30.6 °C 32.2 °F /  0.1 °C 29.71in /  1006hPa NNW 2.9mph /  4.7km/h 8.0mph /  12.9km/h 14% 0.00in /  0mm 1063.0 W/m2
13:22 87.3 °F /  30.7 °C 32.2 °F /  0.1 °C 29.71in /  1006hPa WNW 2.0mph /  3.2km/h 8.0mph /  12.9km/h 14% 0.00in /  0mm 1055.0 W/m2
13:27 87.6 °F /  30.9 °C 32.5 °F /  0.3 °C 29.71in /  1006hPa WSW 0.9mph /  1.4km/h 8.0mph /  12.9km/h 14% 0.00in /  0mm 1055.0 W/m2
13:32 88.0 °F /  31.1 °C 32.9 °F /  0.5 °C 29.71in /  1006hPa West 4.9mph /  7.9km/h 8.0mph /  12.9km/h 14% 0.00in /  0mm 1051.0 W/m2
13:38 88.3 °F /  31.3 °C 33.1 °F /  0.6 °C 29.71in /  1006hPa WSW 2.9mph /  4.7km/h 13.0mph /  20.9km/h 14% 0.00in /  0mm 1042.0 W/m2
13:43 88.3 °F /  31.3 °C 33.1 °F /  0.6 °C 29.70in /  1005.6hPa WNW 0.9mph /  1.4km/h 4.0mph /  6.4km/h 14% 0.00in /  0mm 1041.0 W/m2
13:48 88.3 °F /  31.3 °C 33.1 °F /  0.6 °C 29.70in /  1005.6hPa West 0.9mph /  1.4km/h 13.0mph /  20.9km/h 14% 0.00in /  0mm 1034.0 W/m2
13:53 88.5 °F /  31.4 °C 31.5 °F /  -0.3 °C 29.70in /  1005.6hPa North 2.9mph /  4.7km/h 10.0mph /  16.1km/h 13% 0.00in /  0mm 1032.0 W/m2
13:58 88.3 °F /  31.3 °C 33.1 °F /  0.6 °C 29.70in /  1005.6hPa WNW 2.0mph /  3.2km/h 10.0mph /  16.1km/h 14% 0.00in /  0mm 1023.0 W/m2
14:03 88.0 °F /  31.1 °C 34.5 °F /  1.4 °C 29.70in /  1005.6hPa SW 8.9mph /  14.3km/h 10.0mph /  16.1km/h 15% 0.00in /  0mm 1021.0 W/m2
14:08 87.6 °F /  30.9 °C 32.5 °F /  0.3 °C 29.70in /  1005.6hPa WSW 14.1mph /  22.7km/h 15.0mph /  24.1km/h 14% 0.00in /  0mm 1014.0 W/m2
14:13 87.3 °F /  30.7 °C 34.0 °F /  1.1 °C 29.69in /  1005.3hPa West 6.9mph /  11.1km/h 9.0mph /  14.5km/h 15% 0.00in /  0mm 1000.0 W/m2
14:18 87.1 °F /  30.6 °C 33.8 °F /  1 °C 29.69in /  1005.3hPa North 2.9mph /  4.7km/h 13.0mph /  20.9km/h 15% 0.00in /  0mm 993.0 W/m2
14:23 87.3 °F /  30.7 °C 34.0 °F /  1.1 °C 29.69in /  1005.3hPa WNW 4.0mph /  6.4km/h 7.0mph /  11.3km/h 15% 0.00in /  0mm 984.0 W/m2
14:29 88.2 °F /  31.2 °C 31.1 °F /  -0.5 °C 29.69in /  1005.3hPa NNW 4.0mph /  6.4km/h 15.0mph /  24.1km/h 13% 0.00in /  0mm 983.0 W/m2
14:34 88.5 °F /  31.4 °C 33.3 °F /  0.7 °C 29.69in /  1005.3hPa West 0.9mph /  1.4km/h 10.0mph /  16.1km/h 14% 0.00in /  0mm 977.0 W/m2
14:39 88.7 °F /  31.5 °C 31.5 °F /  -0.3 °C 29.69in /  1005.3hPa Calm   9.0mph /  14.5km/h 13% 0.00in /  0mm 969.0 W/m2
14:44 89.1 °F /  31.7 °C 29.8 °F /  -1.2 °C 29.69in /  1005.3hPa North 10.1mph /  16.3km/h 14.0mph /  22.5km/h 12% 0.00in /  0mm 956.0 W/m2
14:49 88.7 °F /  31.5 °C 31.5 °F /  -0.3 °C 29.69in /  1005.3hPa North 2.0mph /  3.2km/h 9.0mph /  14.5km/h 13% 0.00in /  0mm 953.0 W/m2
14:54 88.7 °F /  31.5 °C 27.5 °F /  -2.5 °C 29.69in /  1005.3hPa WNW 2.9mph /  4.7km/h 5.0mph /  8km/h 11% 0.00in /  0mm 935.0 W/m2
14:59 88.7 °F /  31.5 °C 29.7 °F /  -1.3 °C 29.68in /  1005hPa NNW 8.9mph /  14.3km/h 10.0mph /  16.1km/h 12% 0.00in /  0mm 930.0 W/m2
15:04 88.9 °F /  31.6 °C 29.7 °F /  -1.3 °C 29.68in /  1005hPa North 6.9mph /  11.1km/h 12.0mph /  19.3km/h 12% 0.00in /  0mm 921.0 W/m2
15:09 88.9 °F /  31.6 °C 29.7 °F /  -1.3 °C 29.68in /  1005hPa NNW 4.0mph /  6.4km/h 12.0mph /  19.3km/h 12% 0.00in /  0mm 905.0 W/m2
15:15 88.7 °F /  31.5 °C 29.7 °F /  -1.3 °C 29.69in /  1005.3hPa NNW 0.9mph /  1.4km/h 6.0mph /  9.7km/h 12% 0.00in /  0mm 889.0 W/m2
15:20 89.1 °F /  31.7 °C 29.8 °F /  -1.2 °C 29.68in /  1005hPa Calm   9.0mph /  14.5km/h 12% 0.00in /  0mm 881.0 W/m2
15:25 89.1 °F /  31.7 °C 27.7 °F /  -2.4 °C 29.68in /  1005hPa West 2.0mph /  3.2km/h 13.0mph /  20.9km/h 11% 0.00in /  0mm 868.0 W/m2
15:30 89.1 °F /  31.7 °C 27.7 °F /  -2.4 °C 29.68in /  1005hPa NW 2.9mph /  4.7km/h 5.0mph /  8km/h 11% 0.00in /  0mm 854.0 W/m2
15:36 88.9 °F /  31.6 °C 27.5 °F /  -2.5 °C 29.68in /  1005hPa North 2.0mph /  3.2km/h 9.0mph /  14.5km/h 11% 0.00in /  0mm 835.0 W/m2
15:41 89.4 °F /  31.9 °C 28.0 °F /  -2.2 °C 29.67in /  1004.6hPa SW 2.0mph /  3.2km/h 5.0mph /  8km/h 11% 0.00in /  0mm 821.0 W/m2
15:46 89.8 °F /  32.1 °C 28.2 °F /  -2.1 °C 29.68in /  1005hPa East 2.9mph /  4.7km/h 11.0mph /  17.7km/h 11% 0.00in /  0mm 807.0 W/m2
15:51 89.6 °F /  32 °C 28.2 °F /  -2.1 °C 29.67in /  1004.6hPa West 2.0mph /  3.2km/h 6.0mph /  9.7km/h 11% 0.00in /  0mm 788.0 W/m2
15:56 89.8 °F /  32.1 °C 28.2 °F /  -2.1 °C 29.67in /  1004.6hPa North 16.1mph /  25.9km/h 17.0mph /  27.4km/h 11% 0.00in /  0mm 770.0 W/m2
16:02 89.2 °F /  31.8 °C 27.9 °F /  -2.3 °C 29.67in /  1004.6hPa SW 10.1mph /  16.3km/h 16.0mph /  25.7km/h 11% 0.00in /  0mm 759.0 W/m2
16:07 88.7 °F /  31.5 °C 29.7 °F /  -1.3 °C 29.67in /  1004.6hPa Calm   5.0mph /  8km/h 12% 0.00in /  0mm 742.0 W/m2
16:08 88.9 °F /  31.6 °C 27.5 °F /  -2.5 °C 29.67in /  1004.6hPa WSW 0.9mph /  1.4km/h 6.0mph /  9.7km/h 11% 0.00in /  0mm 737.0 W/m2
16:13 89.1 °F /  31.7 °C 27.7 °F /  -2.4 °C 29.67in /  1004.6hPa NNW 2.9mph /  4.7km/h 8.0mph /  12.9km/h 11% 0.00in /  0mm 722.0 W/m2
16:18 89.2 °F /  31.8 °C 27.9 °F /  -2.3 °C 29.67in /  1004.6hPa SW 0.9mph /  1.4km/h 5.0mph /  8km/h 11% 0.00in /  0mm 705.0 W/m2
16:23 89.4 °F /  31.9 °C 30.2 °F /  -1 °C 29.67in /  1004.6hPa Calm   5.0mph /  8km/h 12% 0.00in /  0mm 687.0 W/m2
16:28 89.8 °F /  32.1 °C 28.2 °F /  -2.1 °C 29.67in /  1004.6hPa North 2.9mph /  4.7km/h 7.0mph /  11.3km/h 11% 0.00in /  0mm 671.0 W/m2
16:33 90.1 °F /  32.3 °C 28.6 °F /  -1.9 °C 29.67in /  1004.6hPa NW 2.0mph /  3.2km/h 5.0mph /  8km/h 11% 0.00in /  0mm 650.0 W/m2
16:38 90.3 °F /  32.4 °C 28.8 °F /  -1.8 °C 29.67in /  1004.6hPa South 4.0mph /  6.4km/h 6.0mph /  9.7km/h 11% 0.00in /  0mm 631.0 W/m2
16:43 90.3 °F /  32.4 °C 28.8 °F /  -1.8 °C 29.66in /  1004.3hPa SW 0.9mph /  1.4km/h 6.0mph /  9.7km/h 11% 0.00in /  0mm 615.0 W/m2
16:48 89.8 °F /  32.1 °C 25.9 °F /  -3.4 °C 29.67in /  1004.6hPa NNW 0.9mph /  1.4km/h 10.0mph /  16.1km/h 10% 0.00in /  0mm 594.0 W/m2
16:54 89.2 °F /  31.8 °C 27.9 °F /  -2.3 °C 29.67in /  1004.6hPa WSW 2.0mph /  3.2km/h 10.0mph /  16.1km/h 11% 0.00in /  0mm 575.0 W/m2
16:59 88.9 °F /  31.6 °C 27.5 °F /  -2.5 °C 29.67in /  1004.6hPa West 6.0mph /  9.7km/h 7.0mph /  11.3km/h 11% 0.00in /  0mm 555.0 W/m2
17:04 88.7 °F /  31.5 °C 27.5 °F /  -2.5 °C 29.67in /  1004.6hPa NNE 0.9mph /  1.4km/h 7.0mph /  11.3km/h 11% 0.00in /  0mm 536.0 W/m2
17:09 89.1 °F /  31.7 °C 27.7 °F /  -2.4 °C 29.66in /  1004.3hPa NNW 4.0mph /  6.4km/h 12.0mph /  19.3km/h 11% 0.00in /  0mm 520.0 W/m2
17:14 88.9 °F /  31.6 °C 27.5 °F /  -2.5 °C 29.66in /  1004.3hPa WSW 2.9mph /  4.7km/h 5.0mph /  8km/h 11% 0.00in /  0mm 499.0 W/m2
17:19 89.1 °F /  31.7 °C 27.7 °F /  -2.4 °C 29.67in /  1004.6hPa Calm   9.0mph /  14.5km/h 11% 0.00in /  0mm 480.0 W/m2
17:24 88.9 °F /  31.6 °C 27.5 °F /  -2.5 °C 29.67in /  1004.6hPa NNW 2.9mph /  4.7km/h 7.0mph /  11.3km/h 11% 0.00in /  0mm 459.0 W/m2
17:29 88.7 °F /  31.5 °C 25.2 °F /  -3.8 °C 29.67in /  1004.6hPa Calm   7.0mph /  11.3km/h 10% 0.00in /  0mm 436.0 W/m2
17:34 89.1 °F /  31.7 °C 25.3 °F /  -3.7 °C 29.66in /  1004.3hPa WSW 2.0mph /  3.2km/h 3.0mph /  4.8km/h 10% 0.00in /  0mm 417.0 W/m2
17:40 89.4 °F /  31.9 °C 25.7 °F /  -3.5 °C 29.66in /  1004.3hPa NW 0.9mph /  1.4km/h 9.0mph /  14.5km/h 10% 0.00in /  0mm 396.0 W/m2
17:45 89.2 °F /  31.8 °C 25.5 °F /  -3.6 °C 29.66in /  1004.3hPa West 2.0mph /  3.2km/h 7.0mph /  11.3km/h 10% 0.00in /  0mm 376.0 W/m2
17:50 88.7 °F /  31.5 °C 27.5 °F /  -2.5 °C 29.66in /  1004.3hPa Calm   5.0mph /  8km/h 11% 0.00in /  0mm 353.0 W/m2
17:55 88.5 °F /  31.4 °C 25.0 °F /  -3.9 °C 29.67in /  1004.6hPa WSW 4.9mph /  7.9km/h 8.0mph /  12.9km/h 10% 0.00in /  0mm 332.0 W/m2
18:00 88.0 °F /  31.1 °C 24.6 °F /  -4.1 °C 29.67in /  1004.6hPa WSW 2.0mph /  3.2km/h 9.0mph /  14.5km/h 10% 0.00in /  0mm 311.0 W/m2
18:05 87.4 °F /  30.8 °C 26.4 °F /  -3.1 °C 29.67in /  1004.6hPa WSW 2.0mph /  3.2km/h 6.0mph /  9.7km/h 11% 0.00in /  0mm 288.0 W/m2
18:10 87.4 °F /  30.8 °C 26.4 °F /  -3.1 °C 29.67in /  1004.6hPa WNW 4.0mph /  6.4km/h 8.0mph /  12.9km/h 11% 0.00in /  0mm 267.0 W/m2
18:15 87.4 °F /  30.8 °C 24.3 °F /  -4.3 °C 29.67in /  1004.6hPa NW 2.0mph /  3.2km/h 5.0mph /  8km/h 10% 0.00in /  0mm 244.0 W/m2
18:20 87.6 °F /  30.9 °C 26.6 °F /  -3 °C 29.67in /  1004.6hPa SW 2.0mph /  3.2km/h 6.0mph /  9.7km/h 11% 0.00in /  0mm 223.0 W/m2
18:26 87.6 °F /  30.9 °C 24.3 °F /  -4.3 °C 29.67in /  1004.6hPa North 4.0mph /  6.4km/h 10.0mph /  16.1km/h 10% 0.00in /  0mm 202.0 W/m2
18:31 87.3 °F /  30.7 °C 26.4 °F /  -3.1 °C 29.67in /  1004.6hPa SSW 2.0mph /  3.2km/h 4.0mph /  6.4km/h 11% 0.00in /  0mm 183.0 W/m2
18:36 87.3 °F /  30.7 °C 26.4 °F /  -3.1 °C 29.67in /  1004.6hPa Calm   5.0mph /  8km/h 11% 0.00in /  0mm 158.0 W/m2
18:41 87.1 °F /  30.6 °C 26.2 °F /  -3.2 °C 29.68in /  1005hPa WSW 4.0mph /  6.4km/h 7.0mph /  11.3km/h 11% 0.00in /  0mm 134.0 W/m2
18:46 86.5 °F /  30.3 °C 27.9 °F /  -2.3 °C 29.68in /  1005hPa West 0.9mph /  1.4km/h 1.0mph /  1.6km/h 12% 0.00in /  0mm 109.0 W/m2
18:51 86.4 °F /  30.2 °C 25.7 °F /  -3.5 °C 29.68in /  1005hPa Calm   2.0mph /  3.2km/h 11% 0.00in /  0mm 86.0 W/m2
18:56 86.2 °F /  30.1 °C 25.5 °F /  -3.6 °C 29.68in /  1005hPa Calm   2.0mph /  3.2km/h 11% 0.00in /  0mm 65.0 W/m2
19:01 85.8 °F /  29.9 °C 25.2 °F /  -3.8 °C 29.68in /  1005hPa WSW 2.9mph /  4.7km/h 6.0mph /  9.7km/h 11% 0.00in /  0mm 47.0 W/m2
19:06 85.5 °F /  29.7 °C 27.1 °F /  -2.7 °C 29.68in /  1005hPa SSW 2.9mph /  4.7km/h 6.0mph /  9.7km/h 12% 0.00in /  0mm 32.0 W/m2
19:12 84.4 °F /  29.1 °C 28.2 °F /  -2.1 °C 29.69in /  1005.3hPa West 2.0mph /  3.2km/h 7.0mph /  11.3km/h 13% 0.00in /  0mm 19.0 W/m2
19:17 83.1 °F /  28.4 °C 27.1 °F /  -2.7 °C 29.69in /  1005.3hPa WSW 2.9mph /  4.7km/h 5.0mph /  8km/h 13% 0.00in /  0mm 11.0 W/m2
19:22 82.0 °F /  27.8 °C 28.2 °F /  -2.1 °C 29.69in /  1005.3hPa WNW 4.0mph /  6.4km/h 5.0mph /  8km/h 14% 0.00in /  0mm 7.0 W/m2
19:28 81.3 °F /  27.4 °C 27.5 °F /  -2.5 °C 29.69in /  1005.3hPa WSW 4.0mph /  6.4km/h 5.0mph /  8km/h 14% 0.00in /  0mm 5.0 W/m2
19:33 80.8 °F /  27.1 °C 27.1 °F /  -2.7 °C 29.69in /  1005.3hPa Calm   4.0mph /  6.4km/h 14% 0.00in /  0mm 0.0 W/m2
19:38 80.1 °F /  26.7 °C 26.6 °F /  -3 °C 29.69in /  1005.3hPa West 2.0mph /  3.2km/h 5.0mph /  8km/h 14% 0.00in /  0mm 0.0 W/m2
19:43 79.7 °F /  26.5 °C 28.0 °F /  -2.2 °C 29.69in /  1005.3hPa Calm   5.0mph /  8km/h 15% 0.00in /  0mm 0.0 W/m2
19:48 79.3 °F /  26.3 °C 29.3 °F /  -1.5 °C 29.69in /  1005.3hPa West 2.0mph /  3.2km/h 2.0mph /  3.2km/h 16% 0.00in /  0mm 0.0 W/m2
19:53 79.0 °F /  26.1 °C 28.9 °F /  -1.7 °C 29.69in /  1005.3hPa Calm   3.0mph /  4.8km/h 16% 0.00in /  0mm 0.0 W/m2
19:59 78.6 °F /  25.9 °C 28.8 °F /  -1.8 °C 29.69in /  1005.3hPa West 0.9mph /  1.4km/h 3.0mph /  4.8km/h 16% 0.00in /  0mm 0.0 W/m2
20:04 78.3 °F /  25.7 °C 28.4 °F /  -2 °C 29.70in /  1005.6hPa Calm   1.0mph /  1.6km/h 16% 0.00in /  0mm 0.0 W/m2
20:09 77.7 °F /  25.4 °C 29.5 °F /  -1.4 °C 29.70in /  1005.6hPa Calm   3.0mph /  4.8km/h 17% 0.00in /  0mm 0.0 W/m2
20:14 77.5 °F /  25.3 °C 29.3 °F /  -1.5 °C 29.70in /  1005.6hPa Calm   1.0mph /  1.6km/h 17% 0.00in /  0mm 0.0 W/m2
20:19 77.2 °F /  25.1 °C 30.4 °F /  -0.9 °C 29.70in /  1005.6hPa Calm   1.0mph /  1.6km/h 18% 0.00in /  0mm 0.0 W/m2
20:24 76.8 °F /  24.9 °C 30.0 °F /  -1.1 °C 29.70in /  1005.6hPa Calm     18% 0.00in /  0mm 0.0 W/m2
20:29 76.5 °F /  24.7 °C 29.8 °F /  -1.2 °C 29.70in /  1005.6hPa Calm   3.0mph /  4.8km/h 18% 0.00in /  0mm 0.0 W/m2
20:34 75.9 °F /  24.4 °C 29.3 °F /  -1.5 °C 29.70in /  1005.6hPa Calm   1.0mph /  1.6km/h 18% 0.00in /  0mm 0.0 W/m2
20:39 75.6 °F /  24.2 °C 30.4 °F /  -0.9 °C 29.70in /  1005.6hPa SW 2.0mph /  3.2km/h 4.0mph /  6.4km/h 19% 0.00in /  0mm 0.0 W/m2
20:44 75.4 °F /  24.1 °C 30.2 °F /  -1 °C 29.71in /  1006hPa Calm   3.0mph /  4.8km/h 19% 0.00in /  0mm 0.0 W/m2
20:50 75.0 °F /  23.9 °C 30.0 °F /  -1.1 °C 29.71in /  1006hPa SW 2.0mph /  3.2km/h 4.0mph /  6.4km/h 19% 0.00in /  0mm 0.0 W/m2
20:55 74.8 °F /  23.8 °C 32.4 °F /  0.2 °C 29.71in /  1006hPa SW 0.9mph /  1.4km/h 6.0mph /  9.7km/h 21% 0.00in /  0mm 0.0 W/m2
21:00 74.7 °F /  23.7 °C 33.3 °F /  0.7 °C 29.71in /  1006hPa SW 2.9mph /  4.7km/h 9.0mph /  14.5km/h 22% 0.00in /  0mm 0.0 W/m2
21:05 74.5 °F /  23.6 °C 34.3 °F /  1.3 °C 29.71in /  1006hPa WSW 2.0mph /  3.2km/h 4.0mph /  6.4km/h 23% 0.00in /  0mm 0.0 W/m2
21:10 74.5 °F /  23.6 °C 35.2 °F /  1.8 °C 29.72in /  1006.3hPa SW 2.0mph /  3.2km/h 5.0mph /  8km/h 24% 0.00in /  0mm 0.0 W/m2
21:15 74.1 °F /  23.4 °C 35.1 °F /  1.7 °C 29.72in /  1006.3hPa SW 4.9mph /  7.9km/h 6.0mph /  9.7km/h 24% 0.00in /  0mm 0.0 W/m2
21:20 73.9 °F /  23.3 °C 36.0 °F /  2.2 °C 29.72in /  1006.3hPa South 2.9mph /  4.7km/h 6.0mph /  9.7km/h 25% 0.00in /  0mm 0.0 W/m2
21:25 73.8 °F /  23.2 °C 35.8 °F /  2.1 °C 29.72in /  1006.3hPa SSW 2.0mph /  3.2km/h 10.0mph /  16.1km/h 25% 0.00in /  0mm 0.0 W/m2
21:30 73.8 °F /  23.2 °C 35.8 °F /  2.1 °C 29.72in /  1006.3hPa SW 6.0mph /  9.7km/h 9.0mph /  14.5km/h 25% 0.00in /  0mm 0.0 W/m2
21:36 73.6 °F /  23.1 °C 36.5 °F /  2.5 °C 29.72in /  1006.3hPa WSW 2.0mph /  3.2km/h 3.0mph /  4.8km/h 26% 0.00in /  0mm 0.0 W/m2
21:41 73.2 °F /  22.9 °C 36.3 °F /  2.4 °C 29.72in /  1006.3hPa WSW 0.9mph /  1.4km/h 5.0mph /  8km/h 26% 0.00in /  0mm 0.0 W/m2
21:46 73.0 °F /  22.8 °C 36.1 °F /  2.3 °C 29.72in /  1006.3hPa WSW 0.9mph /  1.4km/h 7.0mph /  11.3km/h 26% 0.00in /  0mm 0.0 W/m2
21:51 72.9 °F /  22.7 °C 36.0 °F /  2.2 °C 29.73in /  1006.7hPa WNW 2.9mph /  4.7km/h 6.0mph /  9.7km/h 26% 0.00in /  0mm 0.0 W/m2
21:56 72.7 °F /  22.6 °C 36.9 °F /  2.7 °C 29.73in /  1006.7hPa WSW 4.9mph /  7.9km/h 5.0mph /  8km/h 27% 0.00in /  0mm 0.0 W/m2
22:01 72.3 °F /  22.4 °C 36.5 °F /  2.5 °C 29.73in /  1006.7hPa Calm   3.0mph /  4.8km/h 27% 0.00in /  0mm 0.0 W/m2
22:06 72.1 °F /  22.3 °C 37.2 °F /  2.9 °C 29.73in /  1006.7hPa Calm   1.0mph /  1.6km/h 28% 0.00in /  0mm 0.0 W/m2
22:11 72.0 °F /  22.2 °C 36.1 °F /  2.3 °C 29.73in /  1006.7hPa Calm   5.0mph /  8km/h 27% 0.00in /  0mm 0.0 W/m2
22:16 71.8 °F /  22.1 °C 36.9 °F /  2.7 °C 29.73in /  1006.7hPa NNE 0.9mph /  1.4km/h 2.0mph /  3.2km/h 28% 0.00in /  0mm 0.0 W/m2
22:21 71.4 °F /  21.9 °C 36.7 °F /  2.6 °C 29.73in /  1006.7hPa Calm   1.0mph /  1.6km/h 28% 0.00in /  0mm 0.0 W/m2
22:27 71.2 °F /  21.8 °C 37.4 °F /  3 °C 29.73in /  1006.7hPa Calm     29% 0.00in /  0mm 0.0 W/m2
22:33 71.1 °F /  21.7 °C 37.2 °F /  2.9 °C 29.73in /  1006.7hPa Calm   1.0mph /  1.6km/h 29% 0.00in /  0mm 0.0 W/m2
22:38 70.7 °F /  21.5 °C 36.9 °F /  2.7 °C 29.74in /  1007hPa Calm   3.0mph /  4.8km/h 29% 0.00in /  0mm 0.0 W/m2
22:44 70.3 °F /  21.3 °C 37.4 °F /  3 °C 29.74in /  1007hPa Calm   2.0mph /  3.2km/h 30% 0.00in /  0mm 0.0 W/m2
22:49 70.2 °F /  21.2 °C 37.2 °F /  2.9 °C 29.74in /  1007hPa Calm   1.0mph /  1.6km/h 30% 0.00in /  0mm 0.0 W/m2
22:54 70.0 °F /  21.1 °C 37.0 °F /  2.8 °C 29.74in /  1007hPa Calm   2.0mph /  3.2km/h 30% 0.00in /  0mm 0.0 W/m2
22:59 69.6 °F /  20.9 °C 37.6 °F /  3.1 °C 29.74in /  1007hPa Calm     31% 0.00in /  0mm 0.0 W/m2
23:04 69.4 °F /  20.8 °C 37.4 °F /  3 °C 29.74in /  1007hPa Calm     31% 0.00in /  0mm 0.0 W/m2
23:09 69.3 °F /  20.7 °C 37.4 °F /  3 °C 29.74in /  1007hPa Calm     31% 0.00in /  0mm 0.0 W/m2
23:16 69.1 °F /  20.6 °C 37.9 °F /  3.3 °C 29.74in /  1007hPa Calm     32% 0.00in /  0mm 0.0 W/m2
23:22 68.5 °F /  20.3 °C 37.6 °F /  3.1 °C 29.74in /  1007hPa Calm   1.0mph /  1.6km/h 32% 0.00in /  0mm 0.0 W/m2
23:27 68.4 °F /  20.2 °C 38.1 °F /  3.4 °C 29.74in /  1007hPa Calm     33% 0.00in /  0mm 0.0 W/m2
23:32 68.0 °F /  20 °C 37.8 °F /  3.2 °C 29.74in /  1007hPa NE 0.9mph /  1.4km/h 2.0mph /  3.2km/h 33% 0.00in /  0mm 0.0 W/m2
23:38 67.6 °F /  19.8 °C 38.3 °F /  3.5 °C 29.74in /  1007hPa Calm   1.0mph /  1.6km/h 34% 0.00in /  0mm 0.0 W/m2
23:43 67.3 °F /  19.6 °C 38.7 °F /  3.7 °C 29.74in /  1007hPa Calm   1.0mph /  1.6km/h 35% 0.00in /  0mm 0.0 W/m2
23:48 66.7 °F /  19.3 °C 38.3 °F /  3.5 °C 29.74in /  1007hPa Calm     35% 0.00in /  0mm 0.0 W/m2
23:53 66.6 °F /  19.2 °C 38.1 °F /  3.4 °C 29.74in /  1007hPa Calm   1.0mph /  1.6km/h 35% 0.00in /  0mm 0.0 W/m2
23:58 66.2 °F /  19 °C 38.5 °F /  3.6 °C 29.74in /  1007hPa ENE 2.0mph /  3.2km/h 2.0mph /  3.2km/h 36% 0.00in /  0mm 0.0 W/m2
Olympia, Windhoek, Namibia
Compliments of Weather Underground - 3.25 mb